Time;durP1;ratioP1;P1;durP2;ratioP2;P2;SDS_P1;SDS_P2;PMS_P1;PMS_P2;Temp;Humidity;BMP_temperature;BMP_pressure;BME280_temperature;BME280_humidity;BME280_pressure;Samples;Min_cycle;Max_cycle;Signal;HPM_P1;HPM_P2
2024/02/12 00:02:18;;;;;;;0.00;0.00;;;;;;;5.91;70.66;99054.13;7370734;19;20019;-61
2024/02/12 00:04:50;;;;;;;0.10;0.10;;;;;;;5.87;70.53;99053.34;7370248;19;20081;-61
2024/02/12 00:07:16;;;;;;;0.10;0.10;;;;;;;5.83;70.65;99056.97;7369370;19;20418;-61
2024/02/12 00:09:43;;;;;;;0.10;0.10;;;;;;;5.68;70.98;99026.34;7369871;19;20010;-61
2024/02/12 00:12:08;;;;;;;0.08;0.08;;;;;;;5.69;70.91;99035.78;7369399;19;20015;-61
2024/02/12 00:14:34;;;;;;;0.00;0.00;;;;;;;5.35;70.64;98981.56;7370404;19;20375;-61
2024/02/12 00:17:04;;;;;;;0.10;0.10;;;;;;;5.62;70.91;99037.69;7370742;19;20752;-61
2024/02/12 00:19:34;;;;;;;0.10;0.10;;;;;;;5.68;70.73;99050.50;7371160;19;20569;-61
2024/02/12 00:22:00;;;;;;;0.10;0.10;;;;;;;5.60;70.68;99043.81;7368548;19;20114;-61
2024/02/12 00:24:28;;;;;;;0.10;0.10;;;;;;;5.65;70.89;99057.50;7369764;19;20006;-61
2024/02/12 00:26:57;;;;;;;0.10;0.10;;;;;;;5.60;70.89;99056.78;7366939;19;20529;-61
2024/02/12 00:29:22;;;;;;;0.10;0.10;;;;;;;5.48;70.87;99034.69;7369803;19;20557;-61
2024/02/12 00:31:48;;;;;;;0.00;0.00;;;;;;;5.46;70.94;99037.28;7366887;19;20029;-61
2024/02/12 00:34:13;;;;;;;0.10;0.10;;;;;;;5.54;70.92;99055.22;7373303;19;20007;-61
2024/02/12 00:36:45;;;;;;;0.10;0.10;;;;;;;5.56;70.97;99055.16;7367546;19;20010;-61
2024/02/12 00:39:12;;;;;;;0.10;0.10;;;;;;;5.53;70.96;99050.09;7370438;19;20881;-61
2024/02/12 00:41:38;;;;;;;0.10;0.10;;;;;;;5.44;71.04;99052.03;7364064;19;20749;-61
2024/02/12 00:44:04;;;;;;;0.10;0.10;;;;;;;5.47;70.96;99054.53;7371175;19;20033;-61
2024/02/12 00:46:29;;;;;;;0.00;0.00;;;;;;;5.38;71.34;99048.78;7361550;19;20007;-60
2024/02/12 00:48:56;;;;;;;0.00;0.00;;;;;;;5.32;71.36;99049.81;7367828;19;20018;-60
2024/02/12 00:51:22;;;;;;;0.00;0.00;;;;;;;5.43;71.16;99077.97;7366657;19;20022;-61
2024/02/12 00:53:48;;;;;;;0.10;0.10;;;;;;;5.26;71.32;99049.94;7365555;19;20486;-61
2024/02/12 00:56:16;;;;;;;0.00;0.00;;;;;;;5.37;71.25;99068.66;7369578;19;20090;-61
2024/02/12 00:58:45;;;;;;;0.00;0.00;;;;;;;5.39;71.35;99082.38;7368057;19;20002;-61
2024/02/12 01:01:11;;;;;;;0.10;0.10;;;;;;;4.98;71.48;99028.31;7366359;19;20350;-61
2024/02/12 01:03:36;;;;;;;0.10;0.10;;;;;;;5.33;71.23;99095.50;7366855;19;20629;-61
2024/02/12 01:06:02;;;;;;;0.00;0.00;;;;;;;5.31;71.20;99099.84;7368254;19;20011;-61
2024/02/12 01:08:28;;;;;;;0.10;0.10;;;;;;;5.26;71.62;99088.75;7366162;19;20019;-61
2024/02/12 01:10:53;;;;;;;0.00;0.00;;;;;;;5.31;71.43;99099.84;7368388;19;20094;-61
2024/02/12 01:13:19;;;;;;;0.10;0.10;;;;;;;5.29;71.31;99101.63;7368808;19;20010;-61
2024/02/12 01:15:49;;;;;;;0.10;0.10;;;;;;;5.20;71.61;99083.75;7365820;19;20037;-61
2024/02/12 01:18:15;;;;;;;0.10;0.10;;;;;;;4.88;71.18;99033.72;7365613;19;20089;-61
2024/02/12 01:20:41;;;;;;;0.05;0.05;;;;;;;5.31;71.52;99107.59;7370461;19;20778;-61
2024/02/12 01:23:07;;;;;;;0.10;0.10;;;;;;;5.28;71.29;99096.50;7366717;19;20010;-61
2024/02/12 01:25:32;;;;;;;0.10;0.10;;;;;;;5.27;71.51;99105.13;7372292;19;20035;-61
2024/02/12 01:28:00;;;;;;;0.10;0.10;;;;;;;5.26;71.30;99106.88;7373158;19;20033;-60
2024/02/12 01:30:26;;;;;;;;;;;;;;;5.26;71.53;99112.06;7367544;19;20014;-61
2024/02/12 01:32:53;;;;;;;0.08;0.08;;;;;;;5.21;71.24;99108.75;7367570;19;20298;-61
2024/02/12 01:35:20;;;;;;;0.10;0.10;;;;;;;5.10;70.88;99092.66;7368453;19;20014;-61
2024/02/12 01:37:46;;;;;;;0.00;0.00;;;;;;;4.98;71.29;99082.66;7369807;19;20021;-61
2024/02/12 01:40:11;;;;;;;0.10;0.10;;;;;;;5.13;71.07;99121.06;7366897;19;20014;-61
2024/02/12 01:42:37;;;;;;;0.00;0.00;;;;;;;5.07;71.34;99118.59;7369290;19;20011;-61
2024/02/12 01:45:13;;;;;;;0.10;0.10;;;;;;;4.95;71.33;99097.34;7368730;19;20035;-61
2024/02/12 01:47:41;;;;;;;0.10;0.10;;;;;;;5.03;71.53;99125.59;7366667;19;20573;-61
2024/02/12 01:50:13;;;;;;;0.10;0.10;;;;;;;5.08;71.50;99128.94;7365450;19;20025;-61
2024/02/12 01:52:41;;;;;;;0.00;0.00;;;;;;;5.07;71.69;99139.28;7365387;19;20025;-61
2024/02/12 01:55:07;;;;;;;0.10;0.10;;;;;;;4.97;71.79;99130.06;7363978;19;20660;-62
2024/02/12 01:57:33;;;;;;;0.10;0.10;;;;;;;5.03;71.78;99140.28;7369261;19;20010;-61
2024/02/12 02:00:00;;;;;;;0.03;0.03;;;;;;;4.92;71.83;99138.81;7367514;19;20066;-61
2024/02/12 02:02:25;;;;;;;0.00;0.00;;;;;;;4.63;71.72;99094.72;7367372;19;20025;-61
2024/02/12 02:04:53;;;;;;;0.00;0.00;;;;;;;4.91;71.69;99147.44;7364455;19;20003;-61
2024/02/12 02:07:19;;;;;;;;;;;;;;;5.00;71.78;99155.88;7363294;19;20018;-61
2024/02/12 02:09:46;;;;;;;0.10;0.10;;;;;;;4.82;71.25;99137.34;7366032;19;19925;-62
2024/02/12 02:12:12;;;;;;;0.10;0.10;;;;;;;4.92;71.46;99161.25;7366158;19;20108;-61
2024/02/12 02:14:38;;;;;;;0.10;0.10;;;;;;;4.82;71.80;99147.69;7365539;19;20347;-61
2024/02/12 02:17:05;;;;;;;0.10;0.10;;;;;;;4.71;71.82;99134.16;7368255;19;20015;-61
2024/02/12 02:19:30;;;;;;;0.10;0.10;;;;;;;4.67;71.84;99128.22;7366134;19;20011;-61
2024/02/12 02:21:56;;;;;;;0.10;0.10;;;;;;;4.85;71.77;99163.13;7367272;19;20752;-61
2024/02/12 02:24:21;;;;;;;0.10;0.10;;;;;;;4.83;71.89;99164.91;7366546;19;20017;-61
2024/02/12 02:26:46;;;;;;;0.10;0.10;;;;;;;4.74;71.87;99162.53;7363387;19;20013;-61
2024/02/12 02:29:12;;;;;;;0.10;0.10;;;;;;;4.78;71.83;99169.34;7367594;19;20014;-60
2024/02/12 02:31:38;;;;;;;0.10;0.10;;;;;;;4.71;71.79;99152.25;7362581;19;20014;-61
2024/02/12 02:34:04;;;;;;;0.10;0.10;;;;;;;4.69;72.14;99146.28;7367849;19;20006;-61
2024/02/12 02:36:29;;;;;;;0.10;0.10;;;;;;;4.71;71.85;99149.66;7364758;19;20088;-61
2024/02/12 02:39:01;;;;;;;0.00;0.00;;;;;;;4.65;72.12;99147.22;7364122;19;20017;-61
2024/02/12 02:41:27;;;;;;;0.10;0.10;;;;;;;4.68;71.97;99154.91;7366296;19;20049;-61
2024/02/12 02:43:53;;;;;;;0.10;0.10;;;;;;;4.75;71.71;99181.47;7365452;19;20343;-61
2024/02/12 02:46:27;;;;;;;0.10;0.10;;;;;;;4.75;71.60;99182.31;7369541;19;20018;-61
2024/02/12 02:48:55;;;;;;;0.10;0.10;;;;;;;4.73;71.77;99176.34;7365107;19;20006;-61
2024/02/12 02:51:27;;;;;;;;;;;;;;;4.80;71.67;99185.66;7362717;19;20884;-61
2024/02/12 02:53:52;;;;;;;0.00;0.00;;;;;;;4.61;71.47;99161.09;7361913;19;19915;-61
2024/02/12 02:56:19;;;;;;;0.00;0.00;;;;;;;4.66;71.87;99182.53;7366296;19;20514;-61
2024/02/12 02:58:47;;;;;;;0.10;0.10;;;;;;;4.66;71.63;99187.69;7361666;19;20011;-61
2024/02/12 03:01:13;;;;;;;0.10;0.10;;;;;;;4.57;71.43;99172.41;7365072;19;20457;-61
2024/02/12 03:03:38;;;;;;;0.10;0.10;;;;;;;4.65;71.81;99191.19;7365422;19;20347;-61
2024/02/12 03:06:05;;;;;;;0.08;0.08;;;;;;;4.65;71.61;99192.03;7363693;19;20094;-61
2024/02/12 03:08:34;;;;;;;0.00;0.00;;;;;;;4.47;71.70;99170.94;7363456;19;20010;-61
2024/02/12 03:11:01;;;;;;;0.10;0.10;;;;;;;4.48;71.82;99182.97;7361762;19;20033;-61
2024/02/12 03:13:29;;;;;;;0.10;0.10;;;;;;;4.60;71.78;99209.38;7356183;19;20014;-61
2024/02/12 03:15:56;;;;;;;0.10;0.10;;;;;;;4.59;71.92;99205.09;7365563;19;20011;-61
2024/02/12 03:18:22;;;;;;;0.10;0.10;;;;;;;4.61;71.83;99217.97;7363818;19;20364;-61
2024/02/12 03:20:49;;;;;;;0.00;0.00;;;;;;;4.51;72.04;99207.03;7365173;19;20010;-61
2024/02/12 03:23:14;;;;;;;0.10;0.10;;;;;;;4.60;71.94;99211.09;7365930;19;20057;-61
2024/02/12 03:25:41;;;;;;;0.10;0.10;;;;;;;4.51;72.24;99206.13;7364772;19;20434;-61
2024/02/12 03:28:07;;;;;;;0.00;0.00;;;;;;;4.51;71.92;99203.56;7363889;19;20483;-62
2024/02/12 03:30:32;;;;;;;0.10;0.10;;;;;;;4.39;72.31;99190.03;7364377;19;20006;-61
2024/02/12 03:33:02;;;;;;;0.10;0.10;;;;;;;4.49;72.29;99213.09;7364072;19;20069;-61
2024/02/12 03:35:27;;;;;;;0.10;0.10;;;;;;;4.50;71.89;99217.38;7363282;19;20078;-61
2024/02/12 03:37:53;;;;;;;0.10;0.10;;;;;;;4.52;71.84;99220.78;7358695;19;20082;-61
2024/02/12 03:40:21;;;;;;;0.03;0.03;;;;;;;4.49;71.89;99216.53;7361292;19;20010;-61
2024/02/12 03:42:49;;;;;;;0.00;0.00;;;;;;;4.48;72.14;99224.31;7362309;19;20010;-62
2024/02/12 03:45:15;;;;;;;0.03;0.03;;;;;;;4.35;72.15;99209.06;7364317;19;20026;-61
2024/02/12 03:47:41;;;;;;;0.00;0.00;;;;;;;4.45;72.29;99219.19;7363148;19;20006;-61
2024/02/12 04:01:06;;;;;;;0.00;0.00;;;;;;;4.26;71.97;99209.28;7365801;19;20463;-61
2024/02/12 04:03:32;;;;;;;0.00;0.00;;;;;;;4.34;71.92;99228.03;7364665;19;20003;-61
2024/02/12 04:06:00;;;;;;;0.10;0.10;;;;;;;4.05;72.19;99176.97;7369727;19;20051;-61
2024/02/12 04:08:25;;;;;;;;;;;;;;;4.37;72.13;99227.13;7369351;19;20038;-62
2024/02/12 04:10:51;;;;;;;0.05;0.05;;;;;;;4.22;72.23;99217.13;7369455;19;20800;-61
2024/02/12 04:13:16;;;;;;;0.10;0.10;;;;;;;4.12;72.24;99200.97;7372887;19;20006;-61
2024/02/12 04:15:42;;;;;;;0.10;0.10;;;;;;;4.15;72.15;99219.81;7366505;19;20773;-61
2024/02/12 04:18:12;;;;;;;0.10;0.10;;;;;;;4.26;71.92;99249.75;7360616;19;20006;-61
2024/02/12 04:20:37;;;;;;;0.10;0.10;;;;;;;4.22;72.38;99233.47;7370732;19;20025;-61
2024/02/12 04:23:04;;;;;;;0.10;0.10;;;;;;;4.13;71.80;99233.66;7366491;19;21877;-62
2024/02/12 04:25:30;;;;;;;0.00;0.00;;;;;;;4.21;72.27;99247.28;7369799;19;20518;-62
2024/02/12 04:27:55;;;;;;;0.10;0.10;;;;;;;4.10;72.29;99231.97;7368639;19;20735;-61
2024/02/12 04:30:23;;;;;;;0.00;0.00;;;;;;;4.01;72.30;99218.41;7371481;19;20037;-61
2024/02/12 04:32:48;;;;;;;0.08;0.08;;;;;;;3.99;72.23;99221.00;7370511;19;20021;-61
2024/02/12 04:35:14;;;;;;;0.00;0.00;;;;;;;4.09;72.35;99242.34;7371840;19;20010;-61
2024/02/12 04:37:40;;;;;;;0.10;0.10;;;;;;;4.17;72.63;99253.38;7368890;19;20006;-61
2024/02/12 04:40:07;;;;;;;0.00;0.00;;;;;;;4.07;72.28;99238.94;7370697;19;20102;-61
2024/02/12 04:42:33;;;;;;;0.00;0.00;;;;;;;3.87;72.29;99209.19;7367030;19;20404;-62
2024/02/12 04:44:59;;;;;;;0.10;0.10;;;;;;;4.05;72.65;99251.03;7370259;19;20082;-61
2024/02/12 04:47:24;;;;;;;0.10;0.10;;;;;;;4.14;72.46;99264.63;7370519;19;20038;-61
2024/02/12 04:49:49;;;;;;;0.10;0.10;;;;;;;4.07;72.46;99255.28;7369476;19;20011;-61
2024/02/12 04:52:16;;;;;;;0.10;0.10;;;;;;;4.06;72.34;99257.91;7367465;19;20006;-62
2024/02/12 04:54:43;;;;;;;0.10;0.10;;;;;;;4.15;72.18;99278.38;7371852;19;20029;-61
2024/02/12 04:57:09;;;;;;;0.08;0.08;;;;;;;4.11;72.19;99271.59;7367121;19;20006;-61
2024/02/12 04:59:35;;;;;;;0.10;0.10;;;;;;;3.88;72.30;99239.28;7368769;19;20010;-61
2024/02/12 05:02:00;;;;;;;0.10;0.10;;;;;;;3.93;72.46;99262.44;7367869;19;20013;-61
2024/02/12 05:04:29;;;;;;;0.00;0.00;;;;;;;3.96;72.59;99267.56;7370861;19;20014;-61
2024/02/12 05:06:54;;;;;;;0.10;0.10;;;;;;;4.00;72.41;99274.34;7368497;19;20022;-61
2024/02/12 05:09:19;;;;;;;0.00;0.00;;;;;;;3.99;72.28;99282.13;7369588;19;20006;-61
2024/02/12 05:11:45;;;;;;;0.10;0.10;;;;;;;3.90;72.18;99273.69;7366088;19;20016;-61
2024/02/12 05:14:10;;;;;;;0.00;0.00;;;;;;;3.99;72.66;99298.50;7359745;19;20010;-61
2024/02/12 05:16:37;;;;;;;0.00;0.00;;;;;;;3.93;72.40;99290.84;7371506;19;20469;-61
2024/02/12 05:24:31;;;;;;;0.08;0.08;;;;;;;3.83;72.46;99300.50;7368402;19;20613;-61
2024/02/12 05:27:00;;;;;;;0.10;0.10;;;;;;;4.00;72.47;99326.00;7370048;19;20067;-61
2024/02/12 05:29:26;;;;;;;0.10;0.10;;;;;;;3.98;72.52;99332.09;7366792;19;20022;-61
2024/02/12 05:31:52;;;;;;;0.00;0.00;;;;;;;3.96;72.50;99333.88;7367502;19;20028;-61
2024/02/12 05:34:20;;;;;;;0.03;0.03;;;;;;;3.96;72.50;99344.19;7367227;19;20011;-62
2024/02/12 05:36:49;;;;;;;;;;;;;;;3.98;72.52;99337.25;7372271;19;20018;-61
2024/02/12 05:39:16;;;;;;;0.10;0.10;;;;;;;3.90;72.58;99338.25;7366352;19;19926;-61
2024/02/12 05:41:41;;;;;;;0.05;0.05;;;;;;;3.92;72.49;99345.13;7365729;19;20678;-61
2024/02/12 05:44:07;;;;;;;0.00;0.00;;;;;;;3.85;72.62;99337.50;7368127;19;20010;-61
2024/02/12 05:46:34;;;;;;;0.00;0.00;;;;;;;3.72;72.51;99319.66;7366187;19;20011;-61
2024/02/12 05:49:00;;;;;;;0.00;0.00;;;;;;;3.76;72.96;99327.31;7368773;19;20374;-61
2024/02/12 05:51:26;;;;;;;0.10;0.10;;;;;;;3.80;72.67;99347.06;7355993;19;20494;-62
2024/02/12 05:53:52;;;;;;;0.00;0.00;;;;;;;3.87;72.94;99356.38;7367045;19;20017;-61
2024/02/12 05:56:18;;;;;;;0.10;0.10;;;;;;;3.80;73.02;99344.47;7365840;19;20014;-62
2024/02/12 05:58:43;;;;;;;0.10;0.10;;;;;;;3.84;72.63;99360.75;7369639;19;20489;-61
2024/02/12 06:01:09;;;;;;;0.00;0.00;;;;;;;3.74;72.95;99338.53;7367269;19;20002;-62
2024/02/12 06:03:34;;;;;;;0.10;0.10;;;;;;;3.74;72.67;99343.69;7364764;19;20018;-61
2024/02/12 06:06:00;;;;;;;0.00;0.00;;;;;;;3.83;73.12;99370.22;7367734;19;20006;-61
2024/02/12 06:08:26;;;;;;;0.00;0.00;;;;;;;3.84;72.94;99371.91;7364609;19;20018;-61
2024/02/12 06:10:51;;;;;;;0.10;0.10;;;;;;;3.86;72.95;99377.06;7364886;19;20102;-62
2024/02/12 06:13:17;;;;;;;0.10;0.10;;;;;;;3.83;72.79;99375.38;7366255;19;20082;-61
2024/02/12 06:15:43;;;;;;;0.10;0.10;;;;;;;3.68;72.81;99354.97;7368066;19;20020;-61
2024/02/12 06:18:09;;;;;;;0.00;0.00;;;;;;;3.70;72.80;99358.41;7368627;19;20036;-61
2024/02/12 06:20:35;;;;;;;0.00;0.00;;;;;;;3.77;72.98;99375.50;7367182;19;20780;-61
2024/02/12 06:23:00;;;;;;;0.10;0.10;;;;;;;3.68;72.68;99357.56;7365859;19;20018;-61
2024/02/12 06:25:26;;;;;;;0.00;0.00;;;;;;;3.67;72.75;99362.75;7363567;19;20425;-61
2024/02/12 06:27:52;;;;;;;0.10;0.10;;;;;;;3.60;72.88;99356.84;7362981;19;20014;-61
2024/02/12 06:30:17;;;;;;;0.00;0.00;;;;;;;3.78;72.87;99397.84;7361412;19;20458;-61
2024/02/12 06:32:43;;;;;;;0.10;0.10;;;;;;;3.70;72.88;99393.66;7366377;19;20435;-61
2024/02/12 06:35:08;;;;;;;0.03;0.03;;;;;;;3.76;73.01;99406.50;7365290;19;20385;-61
2024/02/12 06:37:35;;;;;;;0.10;0.10;;;;;;;3.77;72.99;99406.47;7365827;19;20074;-61
2024/02/12 06:40:02;;;;;;;0.00;0.00;;;;;;;3.73;73.12;99404.81;7365550;19;20876;-61
2024/02/12 06:42:29;;;;;;;0.00;0.00;;;;;;;3.55;72.94;99387.91;7363798;19;20085;-61
2024/02/12 06:44:55;;;;;;;0.00;0.00;;;;;;;3.60;72.84;99405.91;7366852;19;20461;-61
2024/02/12 06:47:21;;;;;;;0.08;0.08;;;;;;;3.62;72.90;99414.47;7367237;19;20017;-61
2024/02/12 06:49:47;;;;;;;0.10;0.10;;;;;;;3.75;72.93;99431.47;7363062;19;20031;-61
2024/02/12 06:52:13;;;;;;;0.10;0.10;;;;;;;3.60;72.79;99408.47;7364548;19;20019;-61
2024/02/12 06:54:38;;;;;;;0.10;0.10;;;;;;;3.62;72.75;99422.19;7364197;19;20003;-61
2024/02/12 06:57:04;;;;;;;0.00;0.00;;;;;;;3.69;72.82;99436.72;7366261;19;20696;-61
2024/02/12 06:59:29;;;;;;;0.00;0.00;;;;;;;3.59;72.75;99423.09;7359958;19;20007;-61
2024/02/12 07:01:56;;;;;;;0.10;0.10;;;;;;;3.65;73.09;99437.66;7363088;19;20097;-61
2024/02/12 07:04:22;;;;;;;0.10;0.10;;;;;;;3.61;73.12;99431.69;7366687;19;20027;-61
2024/02/12 07:06:47;;;;;;;0.00;0.00;;;;;;;3.68;73.31;99453.06;7365144;19;20018;-61
2024/02/12 07:09:13;;;;;;;0.05;0.05;;;;;;;3.68;72.98;99450.50;7365014;19;20006;-62
2024/02/12 07:11:38;;;;;;;0.00;0.00;;;;;;;3.56;72.90;99423.16;7362612;19;20011;-61
2024/02/12 07:14:04;;;;;;;0.03;0.03;;;;;;;3.70;72.98;99451.34;7363266;19;20017;-61
2024/02/12 07:16:30;;;;;;;0.00;0.00;;;;;;;3.65;73.05;99445.41;7365196;19;20026;-61
2024/02/12 07:18:59;;;;;;;0.00;0.00;;;;;;;3.69;73.28;99454.78;7365859;19;20485;-61
2024/02/12 07:21:25;;;;;;;0.00;0.00;;;;;;;3.71;73.27;99472.84;7364732;19;20014;-61
2024/02/12 07:23:51;;;;;;;0.10;0.10;;;;;;;3.56;72.98;99448.97;7363753;19;20485;-61
2024/02/12 07:26:16;;;;;;;0.00;0.00;;;;;;;3.68;73.15;99473.72;7364472;19;20014;-61
2024/02/12 07:28:42;;;;;;;0.10;0.10;;;;;;;3.53;73.41;99451.56;7360145;19;20003;-61
2024/02/12 07:31:10;;;;;;;0.10;0.10;;;;;;;3.38;72.95;99424.25;7363579;19;20721;-61
2024/02/12 07:33:36;;;;;;;0.10;0.10;;;;;;;3.60;73.17;99468.69;7363946;19;20010;-62
2024/02/12 07:36:05;;;;;;;0.05;0.05;;;;;;;3.72;73.21;99485.72;7365828;19;20037;-61
2024/02/12 07:38:31;;;;;;;0.00;0.00;;;;;;;3.66;72.94;99477.22;7368945;19;20018;-61
2024/02/12 07:40:58;;;;;;;0.10;0.10;;;;;;;3.67;73.40;99481.50;7371392;19;20350;-62
2024/02/12 07:43:28;;;;;;;0.10;0.10;;;;;;;3.72;73.48;99506.38;7367707;19;20023;-62
2024/02/12 07:45:54;;;;;;;0.00;0.00;;;;;;;3.72;73.49;99508.13;7368923;19;20027;-61
2024/02/12 07:48:22;;;;;;;0.00;0.00;;;;;;;3.73;73.35;99513.25;7365721;19;20014;-61
2024/02/12 07:50:52;;;;;;;0.10;0.10;;;;;;;3.72;73.55;99519.28;7370773;19;20018;-61
2024/02/12 07:53:24;;;;;;;0.00;0.00;;;;;;;3.59;73.06;99504.84;7366559;19;20002;-61
2024/02/12 07:55:54;;;;;;;0.10;0.10;;;;;;;3.68;73.32;99525.38;7372932;19;20261;-61
2024/02/12 07:58:20;;;;;;;0.00;0.00;;;;;;;3.75;73.43;99532.16;7368975;19;20002;-61
2024/02/12 08:00:48;;;;;;;0.05;0.05;;;;;;;3.74;73.24;99530.44;7361727;19;20033;-61
2024/02/12 08:03:16;;;;;;;0.00;0.00;;;;;;;3.64;73.55;99521.09;7369980;19;20011;-61
2024/02/12 08:05:42;;;;;;;0.10;0.10;;;;;;;3.67;73.17;99527.97;7368271;19;20022;-61
2024/02/12 08:08:07;;;;;;;0.10;0.10;;;;;;;3.74;73.25;99533.03;7364300;19;20021;-61
2024/02/12 08:10:33;;;;;;;0.10;0.10;;;;;;;3.62;73.51;99525.44;7363211;19;20726;-61
2024/02/12 08:12:59;;;;;;;0.10;0.10;;;;;;;3.69;73.42;99536.53;7363141;19;20026;-62
2024/02/12 08:15:24;;;;;;;0.10;0.10;;;;;;;3.75;73.29;99550.25;7364535;19;20006;-61
2024/02/12 08:17:52;;;;;;;0.00;0.00;;;;;;;3.82;73.42;99559.59;7363611;19;20007;-61
2024/02/12 08:20:18;;;;;;;0.00;0.00;;;;;;;3.62;73.52;99530.63;7367898;19;20047;-61
2024/02/12 08:22:44;;;;;;;0.05;0.05;;;;;;;3.69;73.63;99539.13;7364149;19;20019;-61
2024/02/12 08:25:10;;;;;;;0.00;0.00;;;;;;;3.83;73.67;99550.13;7367024;19;20010;-61
2024/02/12 08:27:35;;;;;;;0.10;0.10;;;;;;;3.82;73.48;99554.44;7361758;19;20015;-60
2024/02/12 08:30:01;;;;;;;0.10;0.10;;;;;;;3.82;73.66;99548.41;7365067;19;20059;-61
2024/02/12 08:32:28;;;;;;;0.08;0.08;;;;;;;3.82;73.43;99549.28;7364973;19;20378;-61
2024/02/12 08:34:54;;;;;;;0.10;0.10;;;;;;;3.89;73.50;99556.03;7361726;19;20002;-61
2024/02/12 08:37:19;;;;;;;0.10;0.10;;;;;;;3.85;73.71;99538.91;7369198;19;20033;-61
2024/02/12 08:39:45;;;;;;;0.10;0.10;;;;;;;3.90;73.98;99546.56;7364827;19;20025;-60
2024/02/12 08:42:10;;;;;;;0.10;0.10;;;;;;;4.04;74.10;99551.53;7371569;19;20087;-62
2024/02/12 08:44:36;;;;;;;0.10;0.10;;;;;;;4.19;74.19;99561.66;7366777;19;20014;-61
2024/02/12 08:47:01;;;;;;;0.10;0.10;;;;;;;4.33;74.13;99567.47;7364318;19;20018;-61
2024/02/12 08:49:27;;;;;;;0.03;0.03;;;;;;;4.43;74.22;99565.59;7367313;19;20006;-61
2024/02/12 08:51:53;;;;;;;0.10;0.10;;;;;;;4.51;73.62;99549.94;7360866;19;20074;-61
2024/02/12 08:54:22;;;;;;;0.10;0.10;;;;;;;4.75;73.66;99575.38;7366977;19;20033;-61
2024/02/12 08:56:51;;;;;;;0.10;0.10;;;;;;;4.88;73.54;99570.88;7364847;19;20733;-61
2024/02/12 08:59:19;;;;;;;0.00;0.00;;;;;;;4.87;74.26;99540.72;7369074;19;20031;-61
2024/02/12 09:01:44;;;;;;;0.10;0.10;;;;;;;5.20;74.15;99568.53;7364083;19;20552;-61
2024/02/12 09:04:10;;;;;;;0.00;0.00;;;;;;;5.37;73.78;99577.72;7365821;19;20030;-61
2024/02/12 09:06:35;;;;;;;0.00;0.00;;;;;;;5.45;73.54;99563.75;7366489;19;20010;-61
2024/02/12 09:09:01;;;;;;;0.10;0.10;;;;;;;5.56;73.38;99568.69;7363551;19;20022;-61
2024/02/12 09:11:26;;;;;;;0.10;0.10;;;;;;;5.80;73.69;99588.06;7364664;19;20033;-61
2024/02/12 09:13:52;;;;;;;0.10;0.10;;;;;;;5.90;73.54;99580.94;7365931;19;20006;-61
2024/02/12 09:16:19;;;;;;;0.10;0.10;;;;;;;5.97;73.25;99572.19;7366208;19;20041;-61
2024/02/12 09:18:46;;;;;;;0.00;0.00;;;;;;;6.16;72.52;99589.03;7369174;19;20474;-61
2024/02/12 09:21:12;;;;;;;0.10;0.10;;;;;;;6.24;73.28;99596.66;7364446;19;20010;-61
2024/02/12 09:23:38;;;;;;;0.08;0.08;;;;;;;6.31;72.60;99593.00;7369738;19;20085;-61
2024/02/12 09:26:05;;;;;;;0.08;0.08;;;;;;;6.22;72.11;99572.47;7366175;19;20010;-61
2024/02/12 09:28:31;;;;;;;;;;;;;;;6.52;73.84;99588.22;7368583;19;20011;-60
2024/02/12 09:30:59;;;;;;;0.08;0.08;;;;;;;6.57;72.43;99594.97;7362111;19;21634;-61
2024/02/12 09:33:25;;;;;;;0.10;0.10;;;;;;;6.70;72.07;99598.16;7367691;19;20360;-61
2024/02/12 09:35:51;;;;;;;0.10;0.10;;;;;;;6.84;72.07;99603.81;7366868;19;20017;-61
2024/02/12 09:38:18;;;;;;;0.10;0.10;;;;;;;7.01;72.62;99606.88;7364885;19;20019;-60
2024/02/12 09:40:44;;;;;;;0.10;0.10;;;;;;;7.19;72.93;99599.47;7363073;19;20007;-60
2024/02/12 09:43:12;;;;;;;0.10;0.10;;;;;;;7.35;71.95;99597.31;7366890;19;20007;-61
2024/02/12 09:45:44;;;;;;;0.00;0.00;;;;;;;7.56;72.11;99596.75;7362770;19;20029;-61
2024/02/12 09:48:13;;;;;;;0.10;0.10;;;;;;;7.71;70.53;99608.44;7367518;19;20794;-61
2024/02/12 09:50:40;;;;;;;0.10;0.10;;;;;;;7.84;70.14;99606.34;7364881;19;20017;-61
2024/02/12 09:53:09;;;;;;;0.10;0.10;;;;;;;8.06;71.52;99615.22;7367666;19;20011;-61
2024/02/12 09:55:35;;;;;;;0.10;0.10;;;;;;;8.24;70.00;99603.41;7367423;19;20015;-61
2024/02/12 09:58:01;;;;;;;0.10;0.10;;;;;;;8.33;69.79;99592.72;7364589;19;20494;-61
2024/02/12 10:00:26;;;;;;;0.10;0.10;;;;;;;8.62;69.73;99609.16;7365756;19;20033;-61
2024/02/12 10:02:56;;;;;;;0.10;0.10;;;;;;;8.81;70.06;99621.53;7365696;19;20431;-61
2024/02/12 10:05:25;;;;;;;0.10;0.10;;;;;;;8.93;68.85;99609.88;7366565;19;20499;-61
2024/02/12 10:07:51;;;;;;;0.10;0.10;;;;;;;9.16;68.88;99618.66;7367788;19;20010;-61
2024/02/12 10:10:17;;;;;;;0.03;0.03;;;;;;;9.29;68.59;99625.16;7366675;19;20470;-61
2024/02/12 10:12:43;;;;;;;0.10;0.10;;;;;;;9.42;67.74;99617.75;7355046;19;20086;-61
2024/02/12 10:15:13;;;;;;;0.10;0.10;;;;;;;9.58;67.63;99631.97;7365821;19;20010;-61
2024/02/12 10:17:39;;;;;;;0.10;0.10;;;;;;;9.78;68.52;99631.22;7363777;19;20454;-61
2024/02/12 10:20:09;;;;;;;0.10;0.10;;;;;;;9.85;68.50;99604.03;7354070;19;20934;-61
2024/02/12 10:22:36;;;;;;;0.10;0.10;;;;;;;10.07;66.73;99620.56;7362834;19;20542;-61
2024/02/12 10:25:04;;;;;;;0.10;0.10;;;;;;;10.23;67.02;99628.66;7368751;19;20731;-61
2024/02/12 10:27:29;;;;;;;;;;;;;;;10.48;70.51;99641.63;7364844;19;20069;-61
2024/02/12 10:30:01;;;;;;;0.10;0.10;;;;;;;10.57;66.54;99641.28;7365072;19;19923;-61
2024/02/12 10:32:31;;;;;;;0.10;0.10;;;;;;;10.69;66.22;99644.31;7363817;19;20515;-62
2024/02/12 10:35:01;;;;;;;0.10;0.10;;;;;;;10.89;65.66;99639.13;7367465;19;20002;-61
2024/02/12 10:37:27;;;;;;;0.20;0.20;;;;;;;10.95;65.03;99628.44;7364318;19;20073;-61
2024/02/12 10:39:55;;;;;;;0.10;0.10;;;;;;;11.21;65.52;99645.66;7364330;19;20075;-61
2024/02/12 10:42:24;;;;;;;;;;;;;;;11.51;70.00;99648.72;7367194;19;20014;-61
2024/02/12 10:44:50;;;;;;;0.10;0.10;;;;;;;11.54;64.60;99642.50;7363607;19;19918;-61
2024/02/12 10:47:17;;;;;;;0.10;0.10;;;;;;;11.71;64.55;99653.06;7360797;19;20040;-61
2024/02/12 10:49:44;;;;;;;0.10;0.10;;;;;;;11.84;63.93;99649.00;7363869;19;20010;-61
2024/02/12 10:52:14;;;;;;;0.10;0.10;;;;;;;11.99;63.95;99650.09;7363549;19;20045;-62
2024/02/12 10:54:42;;;;;;;0.10;0.10;;;;;;;12.07;62.60;99653.22;7365247;19;20006;-61
2024/02/12 10:57:08;;;;;;;0.10;0.10;;;;;;;12.22;62.66;99656.06;7364059;19;20839;-61
2024/02/12 10:59:34;;;;;;;0.10;0.10;;;;;;;12.38;62.46;99657.03;7362896;19;20023;-61
2024/02/12 11:02:08;;;;;;;0.10;0.10;;;;;;;12.65;63.01;99660.13;7364480;19;20402;-61
2024/02/12 11:04:36;;;;;;;0.15;0.15;;;;;;;12.79;61.94;99662.94;7366134;19;20014;-61
2024/02/12 11:07:16;;;;;;;0.10;0.10;;;;;;;13.04;64.51;99657.34;7364704;19;20101;-61
2024/02/12 11:09:41;;;;;;;0.20;0.20;;;;;;;13.16;61.32;99659.34;7360737;19;20025;-61
2024/02/12 11:12:17;;;;;;;0.10;0.10;;;;;;;13.44;62.57;99689.47;7364358;19;20011;-61
2024/02/12 11:14:45;;;;;;;0.10;0.10;;;;;;;13.66;60.80;99671.69;7368200;19;20732;-61
2024/02/12 11:17:20;;;;;;;0.10;0.10;;;;;;;13.92;62.71;99682.59;7373244;19;20017;-61
2024/02/12 11:19:52;;;;;;;0.10;0.10;;;;;;;14.07;60.68;99680.94;7367850;19;20212;-61
2024/02/12 11:22:28;;;;;;;0.10;0.10;;;;;;;14.08;61.34;99662.47;7373572;19;20011;-61
2024/02/12 11:24:59;;;;;;;0.20;0.20;;;;;;;14.28;58.16;99683.25;7368545;19;20011;-61
2024/02/12 11:27:29;;;;;;;0.10;0.10;;;;;;;14.37;58.09;99673.19;7370265;19;20015;-61
2024/02/12 11:29:59;;;;;;;0.10;0.10;;;;;;;14.46;57.96;99683.19;7370626;19;20051;-61
2024/02/12 11:32:24;;;;;;;0.13;0.13;;;;;;;14.53;58.29;99679.31;7368061;19;20776;-61
2024/02/12 11:34:50;;;;;;;0.10;0.10;;;;;;;14.59;57.39;99673.72;7367424;19;20017;-61
2024/02/12 11:37:18;;;;;;;0.10;0.10;;;;;;;14.70;57.72;99678.38;7366966;19;20014;-61
2024/02/12 11:39:58;;;;;;;0.10;0.10;;;;;;;14.79;59.47;99668.19;7370183;19;20003;-63
2024/02/12 11:42:23;;;;;;;0.10;0.10;;;;;;;14.84;57.06;99683.69;7371019;19;20014;-61
2024/02/12 11:44:49;;;;;;;0.10;0.10;;;;;;;14.87;56.19;99666.94;7368380;19;20022;-61
2024/02/12 11:47:24;;;;;;;0.17;0.17;;;;;;;15.19;58.47;99681.69;7368781;19;20015;-61
2024/02/12 11:49:49;;;;;;;0.10;0.10;;;;;;;15.11;55.91;99649.75;7368262;19;20110;-61
2024/02/12 11:52:15;;;;;;;0.10;0.10;;;;;;;15.37;55.47;99669.25;7367889;19;20090;-61
2024/02/12 11:54:40;;;;;;;0.10;0.10;;;;;;;15.50;55.87;99664.09;7367924;19;20017;-62
2024/02/12 11:57:06;;;;;;;0.10;0.10;;;;;;;15.63;54.22;99666.88;7371802;19;20346;-61